sensor_id;sensor_type;location;lat;lon;timestamp;P1;durP1;ratioP1;P2;durP2;ratioP2
26407;SDS011;14583;43.604;1.364;2023-07-20T00:01:23;8.95;;;5.97;;
26407;SDS011;14583;43.604;1.364;2023-07-20T00:03:49;11.55;;;6.30;;
26407;SDS011;14583;43.604;1.364;2023-07-20T00:06:20;18.98;;;6.47;;
26407;SDS011;14583;43.604;1.364;2023-07-20T00:08:46;13.18;;;6.07;;
26407;SDS011;14583;43.604;1.364;2023-07-20T00:11:12;14.27;;;6.97;;
26407;SDS011;14583;43.604;1.364;2023-07-20T00:13:38;9.20;;;6.20;;
26407;SDS011;14583;43.604;1.364;2023-07-20T00:16:04;15.90;;;6.70;;
26407;SDS011;14583;43.604;1.364;2023-07-20T00:18:30;14.10;;;6.68;;
26407;SDS011;14583;43.604;1.364;2023-07-20T00:20:56;16.23;;;7.32;;
26407;SDS011;14583;43.604;1.364;2023-07-20T00:23:21;13.23;;;6.43;;
26407;SDS011;14583;43.604;1.364;2023-07-20T00:25:47;12.82;;;6.78;;
26407;SDS011;14583;43.604;1.364;2023-07-20T00:28:13;14.70;;;7.15;;
26407;SDS011;14583;43.604;1.364;2023-07-20T00:30:39;13.48;;;7.00;;
26407;SDS011;14583;43.604;1.364;2023-07-20T00:33:06;15.05;;;7.25;;
26407;SDS011;14583;43.604;1.364;2023-07-20T00:35:35;9.30;;;6.53;;
26407;SDS011;14583;43.604;1.364;2023-07-20T00:38:00;11.23;;;6.10;;
26407;SDS011;14583;43.604;1.364;2023-07-20T00:40:26;13.35;;;6.35;;
26407;SDS011;14583;43.604;1.364;2023-07-20T00:42:52;13.05;;;6.43;;
26407;SDS011;14583;43.604;1.364;2023-07-20T00:45:17;11.32;;;6.53;;
26407;SDS011;14583;43.604;1.364;2023-07-20T00:47:43;12.07;;;6.63;;
26407;SDS011;14583;43.604;1.364;2023-07-20T00:50:09;9.80;;;6.55;;
26407;SDS011;14583;43.604;1.364;2023-07-20T00:52:35;9.55;;;5.80;;
26407;SDS011;14583;43.604;1.364;2023-07-20T00:55:04;12.75;;;6.45;;
26407;SDS011;14583;43.604;1.364;2023-07-20T00:57:31;12.68;;;6.78;;
26407;SDS011;14583;43.604;1.364;2023-07-20T00:59:57;11.30;;;6.78;;
26407;SDS011;14583;43.604;1.364;2023-07-20T01:02:23;13.00;;;6.63;;
26407;SDS011;14583;43.604;1.364;2023-07-20T01:04:49;12.48;;;7.10;;
26407;SDS011;14583;43.604;1.364;2023-07-20T01:07:31;9.90;;;6.65;;
26407;SDS011;14583;43.604;1.364;2023-07-20T01:10:18;15.63;;;7.50;;
26407;SDS011;14583;43.604;1.364;2023-07-20T01:12:54;14.20;;;6.60;;
26407;SDS011;14583;43.604;1.364;2023-07-20T01:15:20;15.55;;;7.40;;
26407;SDS011;14583;43.604;1.364;2023-07-20T01:17:46;9.60;;;6.78;;
26407;SDS011;14583;43.604;1.364;2023-07-20T01:20:15;13.20;;;7.18;;
26407;SDS011;14583;43.604;1.364;2023-07-20T01:31:30;10.68;;;6.28;;
26407;SDS011;14583;43.604;1.364;2023-07-20T01:33:59;17.73;;;6.72;;
26407;SDS011;14583;43.604;1.364;2023-07-20T01:36:28;11.57;;;6.43;;
26407;SDS011;14583;43.604;1.364;2023-07-20T01:38:57;12.07;;;5.88;;
26407;SDS011;14583;43.604;1.364;2023-07-20T01:41:23;13.20;;;6.05;;
26407;SDS011;14583;43.604;1.364;2023-07-20T01:43:49;14.18;;;6.22;;
26407;SDS011;14583;43.604;1.364;2023-07-20T01:46:15;13.20;;;6.32;;
26407;SDS011;14583;43.604;1.364;2023-07-20T01:48:40;18.15;;;6.10;;
26407;SDS011;14583;43.604;1.364;2023-07-20T01:51:06;11.00;;;5.93;;
26407;SDS011;14583;43.604;1.364;2023-07-20T01:53:32;12.07;;;5.78;;
26407;SDS011;14583;43.604;1.364;2023-07-20T01:55:58;12.27;;;6.43;;
26407;SDS011;14583;43.604;1.364;2023-07-20T01:58:23;10.63;;;6.10;;
26407;SDS011;14583;43.604;1.364;2023-07-20T02:00:49;12.75;;;6.40;;
26407;SDS011;14583;43.604;1.364;2023-07-20T02:03:15;13.50;;;7.00;;
26407;SDS011;14583;43.604;1.364;2023-07-20T02:05:45;10.88;;;6.93;;
26407;SDS011;14583;43.604;1.364;2023-07-20T02:08:10;12.05;;;6.70;;
26407;SDS011;14583;43.604;1.364;2023-07-20T02:10:36;12.57;;;7.22;;
26407;SDS011;14583;43.604;1.364;2023-07-20T02:13:02;7.40;;;5.70;;
26407;SDS011;14583;43.604;1.364;2023-07-20T02:15:28;13.35;;;6.05;;
26407;SDS011;14583;43.604;1.364;2023-07-20T02:17:54;11.95;;;5.97;;
26407;SDS011;14583;43.604;1.364;2023-07-20T02:20:19;11.30;;;6.10;;
26407;SDS011;14583;43.604;1.364;2023-07-20T02:22:46;14.23;;;6.10;;
26407;SDS011;14583;43.604;1.364;2023-07-20T02:25:11;11.55;;;6.57;;
26407;SDS011;14583;43.604;1.364;2023-07-20T02:27:37;12.05;;;5.63;;
26407;SDS011;14583;43.604;1.364;2023-07-20T02:30:04;10.75;;;5.82;;
26407;SDS011;14583;43.604;1.364;2023-07-20T02:32:30;10.50;;;6.10;;
26407;SDS011;14583;43.604;1.364;2023-07-20T02:34:56;17.48;;;7.18;;
26407;SDS011;14583;43.604;1.364;2023-07-20T02:37:22;14.10;;;6.13;;
26407;SDS011;14583;43.604;1.364;2023-07-20T02:39:48;11.70;;;5.78;;
26407;SDS011;14583;43.604;1.364;2023-07-20T02:42:14;13.93;;;6.20;;
26407;SDS011;14583;43.604;1.364;2023-07-20T02:44:39;12.38;;;6.07;;
26407;SDS011;14583;43.604;1.364;2023-07-20T02:47:05;12.40;;;5.78;;
26407;SDS011;14583;43.604;1.364;2023-07-20T02:49:31;10.73;;;5.72;;
26407;SDS011;14583;43.604;1.364;2023-07-20T02:51:57;14.93;;;5.93;;
26407;SDS011;14583;43.604;1.364;2023-07-20T02:54:22;8.98;;;6.07;;
26407;SDS011;14583;43.604;1.364;2023-07-20T02:56:48;9.93;;;5.80;;
26407;SDS011;14583;43.604;1.364;2023-07-20T02:59:14;9.13;;;5.15;;
26407;SDS011;14583;43.604;1.364;2023-07-20T03:01:39;11.23;;;6.18;;
26407;SDS011;14583;43.604;1.364;2023-07-20T03:04:07;10.05;;;5.25;;
26407;SDS011;14583;43.604;1.364;2023-07-20T03:06:35;11.10;;;5.78;;
26407;SDS011;14583;43.604;1.364;2023-07-20T03:09:01;8.02;;;5.47;;
26407;SDS011;14583;43.604;1.364;2023-07-20T03:11:27;9.88;;;5.70;;
26407;SDS011;14583;43.604;1.364;2023-07-20T03:13:53;11.02;;;5.72;;
26407;SDS011;14583;43.604;1.364;2023-07-20T03:16:19;9.25;;;5.25;;
26407;SDS011;14583;43.604;1.364;2023-07-20T03:18:45;10.00;;;5.28;;
26407;SDS011;14583;43.604;1.364;2023-07-20T03:21:11;9.75;;;5.70;;
26407;SDS011;14583;43.604;1.364;2023-07-20T03:23:38;10.93;;;5.03;;
26407;SDS011;14583;43.604;1.364;2023-07-20T03:26:04;9.52;;;5.40;;
26407;SDS011;14583;43.604;1.364;2023-07-20T03:28:29;10.90;;;5.75;;
26407;SDS011;14583;43.604;1.364;2023-07-20T03:30:56;11.45;;;5.20;;
26407;SDS011;14583;43.604;1.364;2023-07-20T03:33:24;8.82;;;5.13;;
26407;SDS011;14583;43.604;1.364;2023-07-20T03:35:51;13.13;;;5.80;;
26407;SDS011;14583;43.604;1.364;2023-07-20T03:38:17;8.27;;;5.07;;
26407;SDS011;14583;43.604;1.364;2023-07-20T03:40:56;9.65;;;5.00;;
26407;SDS011;14583;43.604;1.364;2023-07-20T03:43:23;9.25;;;5.22;;
26407;SDS011;14583;43.604;1.364;2023-07-20T03:45:50;9.35;;;4.72;;
26407;SDS011;14583;43.604;1.364;2023-07-20T03:48:16;7.88;;;5.00;;
26407;SDS011;14583;43.604;1.364;2023-07-20T03:50:44;7.50;;;5.30;;
26407;SDS011;14583;43.604;1.364;2023-07-20T03:53:10;8.93;;;4.78;;
26407;SDS011;14583;43.604;1.364;2023-07-20T03:55:40;8.75;;;4.60;;
26407;SDS011;14583;43.604;1.364;2023-07-20T03:58:16;8.10;;;5.28;;
26407;SDS011;14583;43.604;1.364;2023-07-20T04:00:45;7.47;;;5.00;;
26407;SDS011;14583;43.604;1.364;2023-07-20T04:03:12;11.75;;;4.50;;
26407;SDS011;14583;43.604;1.364;2023-07-20T04:05:38;8.70;;;4.65;;
26407;SDS011;14583;43.604;1.364;2023-07-20T04:08:04;9.68;;;4.65;;
26407;SDS011;14583;43.604;1.364;2023-07-20T04:10:29;11.40;;;4.97;;
26407;SDS011;14583;43.604;1.364;2023-07-20T04:12:55;7.43;;;4.68;;
26407;SDS011;14583;43.604;1.364;2023-07-20T04:15:21;7.38;;;4.55;;
26407;SDS011;14583;43.604;1.364;2023-07-20T04:17:46;8.38;;;4.60;;
26407;SDS011;14583;43.604;1.364;2023-07-20T04:20:12;7.63;;;4.57;;
26407;SDS011;14583;43.604;1.364;2023-07-20T04:22:38;7.53;;;4.63;;
26407;SDS011;14583;43.604;1.364;2023-07-20T04:25:04;7.53;;;4.60;;
26407;SDS011;14583;43.604;1.364;2023-07-20T04:27:29;6.85;;;4.30;;
26407;SDS011;14583;43.604;1.364;2023-07-20T04:29:55;7.38;;;4.85;;
26407;SDS011;14583;43.604;1.364;2023-07-20T04:32:23;9.40;;;4.82;;
26407;SDS011;14583;43.604;1.364;2023-07-20T04:34:50;9.63;;;4.72;;
26407;SDS011;14583;43.604;1.364;2023-07-20T04:37:15;10.13;;;4.55;;
26407;SDS011;14583;43.604;1.364;2023-07-20T04:39:41;6.85;;;4.60;;
26407;SDS011;14583;43.604;1.364;2023-07-20T04:42:06;6.60;;;4.32;;
26407;SDS011;14583;43.604;1.364;2023-07-20T04:44:32;9.73;;;4.38;;
26407;SDS011;14583;43.604;1.364;2023-07-20T04:46:58;6.22;;;4.68;;
26407;SDS011;14583;43.604;1.364;2023-07-20T04:49:23;8.40;;;4.22;;
26407;SDS011;14583;43.604;1.364;2023-07-20T04:51:49;8.02;;;4.65;;
26407;SDS011;14583;43.604;1.364;2023-07-20T04:54:14;7.68;;;4.97;;
26407;SDS011;14583;43.604;1.364;2023-07-20T04:56:41;11.23;;;5.15;;
26407;SDS011;14583;43.604;1.364;2023-07-20T04:59:07;11.80;;;5.93;;
26407;SDS011;14583;43.604;1.364;2023-07-20T05:01:32;9.75;;;5.95;;
26407;SDS011;14583;43.604;1.364;2023-07-20T05:03:58;10.98;;;6.35;;
26407;SDS011;14583;43.604;1.364;2023-07-20T05:06:23;11.02;;;5.82;;
26407;SDS011;14583;43.604;1.364;2023-07-20T05:08:49;10.13;;;5.82;;
26407;SDS011;14583;43.604;1.364;2023-07-20T05:11:15;13.45;;;6.93;;
26407;SDS011;14583;43.604;1.364;2023-07-20T05:13:41;13.77;;;6.53;;
26407;SDS011;14583;43.604;1.364;2023-07-20T05:16:06;11.98;;;6.15;;
26407;SDS011;14583;43.604;1.364;2023-07-20T05:18:32;16.85;;;5.93;;
26407;SDS011;14583;43.604;1.364;2023-07-20T05:20:58;12.55;;;6.57;;
26407;SDS011;14583;43.604;1.364;2023-07-20T05:23:23;10.25;;;5.50;;
26407;SDS011;14583;43.604;1.364;2023-07-20T05:25:58;9.23;;;5.63;;
26407;SDS011;14583;43.604;1.364;2023-07-20T05:28:25;9.05;;;5.57;;
26407;SDS011;14583;43.604;1.364;2023-07-20T05:30:54;10.02;;;5.28;;
26407;SDS011;14583;43.604;1.364;2023-07-20T05:33:20;12.85;;;5.55;;
26407;SDS011;14583;43.604;1.364;2023-07-20T05:35:46;13.40;;;5.35;;
26407;SDS011;14583;43.604;1.364;2023-07-20T05:38:12;11.50;;;5.85;;
26407;SDS011;14583;43.604;1.364;2023-07-20T05:40:40;12.70;;;6.00;;
26407;SDS011;14583;43.604;1.364;2023-07-20T05:43:07;13.68;;;6.07;;
26407;SDS011;14583;43.604;1.364;2023-07-20T05:45:32;15.20;;;5.72;;
26407;SDS011;14583;43.604;1.364;2023-07-20T05:47:58;14.77;;;6.00;;
26407;SDS011;14583;43.604;1.364;2023-07-20T05:50:24;12.48;;;5.18;;
26407;SDS011;14583;43.604;1.364;2023-07-20T05:52:52;9.38;;;4.45;;
26407;SDS011;14583;43.604;1.364;2023-07-20T05:55:17;12.75;;;4.68;;
26407;SDS011;14583;43.604;1.364;2023-07-20T05:57:43;11.93;;;3.90;;
26407;SDS011;14583;43.604;1.364;2023-07-20T06:00:09;8.40;;;4.18;;
26407;SDS011;14583;43.604;1.364;2023-07-20T06:02:35;5.22;;;3.75;;
26407;SDS011;14583;43.604;1.364;2023-07-20T06:05:01;6.78;;;3.63;;
26407;SDS011;14583;43.604;1.364;2023-07-20T06:07:26;6.80;;;3.50;;
26407;SDS011;14583;43.604;1.364;2023-07-20T06:09:52;8.90;;;4.03;;
26407;SDS011;14583;43.604;1.364;2023-07-20T06:12:18;7.82;;;3.42;;
26407;SDS011;14583;43.604;1.364;2023-07-20T06:14:44;9.43;;;5.70;;
26407;SDS011;14583;43.604;1.364;2023-07-20T06:17:09;8.68;;;4.28;;
26407;SDS011;14583;43.604;1.364;2023-07-20T06:19:35;6.95;;;3.60;;
26407;SDS011;14583;43.604;1.364;2023-07-20T06:22:01;6.43;;;3.28;;
26407;SDS011;14583;43.604;1.364;2023-07-20T06:24:27;5.63;;;3.40;;
26407;SDS011;14583;43.604;1.364;2023-07-20T06:26:52;6.45;;;3.22;;
26407;SDS011;14583;43.604;1.364;2023-07-20T06:29:18;6.38;;;3.17;;
26407;SDS011;14583;43.604;1.364;2023-07-20T06:31:44;7.50;;;2.70;;
26407;SDS011;14583;43.604;1.364;2023-07-20T06:34:09;6.07;;;3.15;;
26407;SDS011;14583;43.604;1.364;2023-07-20T06:36:35;6.88;;;3.30;;
26407;SDS011;14583;43.604;1.364;2023-07-20T06:39:01;7.47;;;3.70;;
26407;SDS011;14583;43.604;1.364;2023-07-20T06:41:28;5.88;;;3.47;;
26407;SDS011;14583;43.604;1.364;2023-07-20T06:43:54;5.03;;;3.85;;
26407;SDS011;14583;43.604;1.364;2023-07-20T06:46:23;4.80;;;3.20;;
26407;SDS011;14583;43.604;1.364;2023-07-20T06:48:50;7.30;;;3.53;;
26407;SDS011;14583;43.604;1.364;2023-07-20T06:51:16;5.45;;;3.58;;
26407;SDS011;14583;43.604;1.364;2023-07-20T06:53:42;9.65;;;3.45;;
26407;SDS011;14583;43.604;1.364;2023-07-20T06:56:08;6.85;;;3.47;;
26407;SDS011;14583;43.604;1.364;2023-07-20T06:58:34;7.05;;;3.63;;
26407;SDS011;14583;43.604;1.364;2023-07-20T07:01:04;8.65;;;3.53;;
26407;SDS011;14583;43.604;1.364;2023-07-20T07:03:30;6.63;;;3.60;;
26407;SDS011;14583;43.604;1.364;2023-07-20T07:05:56;7.18;;;3.60;;
26407;SDS011;14583;43.604;1.364;2023-07-20T07:08:21;10.23;;;3.13;;
26407;SDS011;14583;43.604;1.364;2023-07-20T07:10:47;5.15;;;2.90;;
26407;SDS011;14583;43.604;1.364;2023-07-20T07:13:13;8.43;;;3.33;;
26407;SDS011;14583;43.604;1.364;2023-07-20T07:15:38;8.20;;;3.35;;
26407;SDS011;14583;43.604;1.364;2023-07-20T07:18:04;5.85;;;3.30;;
26407;SDS011;14583;43.604;1.364;2023-07-20T07:20:29;6.20;;;2.92;;
26407;SDS011;14583;43.604;1.364;2023-07-20T07:22:55;11.55;;;3.13;;
26407;SDS011;14583;43.604;1.364;2023-07-20T07:25:22;6.57;;;3.25;;
26407;SDS011;14583;43.604;1.364;2023-07-20T07:27:48;5.43;;;2.80;;
26407;SDS011;14583;43.604;1.364;2023-07-20T07:30:14;7.57;;;2.85;;
26407;SDS011;14583;43.604;1.364;2023-07-20T07:32:40;4.50;;;2.72;;
26407;SDS011;14583;43.604;1.364;2023-07-20T07:35:06;5.95;;;3.15;;
26407;SDS011;14583;43.604;1.364;2023-07-20T07:37:32;4.35;;;2.47;;
26407;SDS011;14583;43.604;1.364;2023-07-20T07:39:57;5.07;;;3.40;;
26407;SDS011;14583;43.604;1.364;2023-07-20T07:42:23;6.07;;;2.70;;
26407;SDS011;14583;43.604;1.364;2023-07-20T07:44:49;5.18;;;2.67;;
26407;SDS011;14583;43.604;1.364;2023-07-20T07:47:14;5.18;;;2.88;;
26407;SDS011;14583;43.604;1.364;2023-07-20T07:49:40;4.35;;;2.60;;
26407;SDS011;14583;43.604;1.364;2023-07-20T07:52:06;7.15;;;2.60;;
26407;SDS011;14583;43.604;1.364;2023-07-20T07:54:31;5.60;;;2.60;;
26407;SDS011;14583;43.604;1.364;2023-07-20T07:56:57;3.95;;;2.58;;
26407;SDS011;14583;43.604;1.364;2023-07-20T07:59:22;3.53;;;2.08;;
26407;SDS011;14583;43.604;1.364;2023-07-20T08:01:48;5.53;;;2.22;;
26407;SDS011;14583;43.604;1.364;2023-07-20T08:04:14;4.05;;;2.35;;
26407;SDS011;14583;43.604;1.364;2023-07-20T08:06:39;5.97;;;2.97;;
26407;SDS011;14583;43.604;1.364;2023-07-20T08:09:05;8.45;;;3.00;;
26407;SDS011;14583;43.604;1.364;2023-07-20T08:11:31;4.57;;;2.50;;
26407;SDS011;14583;43.604;1.364;2023-07-20T08:14:01;4.65;;;2.60;;
26407;SDS011;14583;43.604;1.364;2023-07-20T08:16:27;7.90;;;2.60;;
26407;SDS011;14583;43.604;1.364;2023-07-20T08:18:53;5.60;;;2.92;;
26407;SDS011;14583;43.604;1.364;2023-07-20T08:21:18;3.55;;;2.50;;
26407;SDS011;14583;43.604;1.364;2023-07-20T08:23:44;5.43;;;2.90;;
26407;SDS011;14583;43.604;1.364;2023-07-20T08:26:10;3.35;;;2.35;;
26407;SDS011;14583;43.604;1.364;2023-07-20T08:28:35;8.27;;;2.67;;
26407;SDS011;14583;43.604;1.364;2023-07-20T08:31:01;5.28;;;2.28;;
26407;SDS011;14583;43.604;1.364;2023-07-20T08:33:27;5.00;;;2.50;;
26407;SDS011;14583;43.604;1.364;2023-07-20T08:35:58;6.38;;;2.60;;
26407;SDS011;14583;43.604;1.364;2023-07-20T08:38:23;2.88;;;2.45;;
26407;SDS011;14583;43.604;1.364;2023-07-20T08:40:49;6.03;;;2.40;;
26407;SDS011;14583;43.604;1.364;2023-07-20T08:43:19;3.38;;;2.33;;
26407;SDS011;14583;43.604;1.364;2023-07-20T08:45:48;5.40;;;2.50;;
26407;SDS011;14583;43.604;1.364;2023-07-20T08:48:16;5.10;;;2.15;;
26407;SDS011;14583;43.604;1.364;2023-07-20T08:50:43;4.95;;;2.50;;
26407;SDS011;14583;43.604;1.364;2023-07-20T08:53:10;4.70;;;2.78;;
26407;SDS011;14583;43.604;1.364;2023-07-20T08:55:38;3.95;;;2.50;;
26407;SDS011;14583;43.604;1.364;2023-07-20T08:58:05;5.53;;;2.38;;
26407;SDS011;14583;43.604;1.364;2023-07-20T09:00:36;5.30;;;2.95;;
26407;SDS011;14583;43.604;1.364;2023-07-20T09:03:02;7.38;;;2.60;;
26407;SDS011;14583;43.604;1.364;2023-07-20T09:05:28;4.20;;;2.85;;
26407;SDS011;14583;43.604;1.364;2023-07-20T09:07:55;4.75;;;2.30;;
26407;SDS011;14583;43.604;1.364;2023-07-20T09:10:21;3.17;;;1.95;;
26407;SDS011;14583;43.604;1.364;2023-07-20T09:12:47;4.90;;;2.50;;
26407;SDS011;14583;43.604;1.364;2023-07-20T09:15:13;6.28;;;2.40;;
26407;SDS011;14583;43.604;1.364;2023-07-20T09:17:39;3.88;;;2.10;;
26407;SDS011;14583;43.604;1.364;2023-07-20T09:20:15;4.20;;;2.50;;
26407;SDS011;14583;43.604;1.364;2023-07-20T09:22:42;4.72;;;2.47;;
26407;SDS011;14583;43.604;1.364;2023-07-20T09:27:38;5.13;;;2.22;;
26407;SDS011;14583;43.604;1.364;2023-07-20T09:30:05;3.22;;;2.20;;
26407;SDS011;14583;43.604;1.364;2023-07-20T09:32:38;3.13;;;2.03;;
26407;SDS011;14583;43.604;1.364;2023-07-20T09:35:05;7.38;;;2.40;;
26407;SDS011;14583;43.604;1.364;2023-07-20T09:37:32;4.78;;;2.28;;
26407;SDS011;14583;43.604;1.364;2023-07-20T09:39:58;4.88;;;2.08;;
26407;SDS011;14583;43.604;1.364;2023-07-20T09:42:24;3.05;;;2.30;;
26407;SDS011;14583;43.604;1.364;2023-07-20T09:44:51;6.03;;;2.40;;
26407;SDS011;14583;43.604;1.364;2023-07-20T09:47:23;5.10;;;2.35;;
26407;SDS011;14583;43.604;1.364;2023-07-20T09:49:49;3.57;;;2.20;;
26407;SDS011;14583;43.604;1.364;2023-07-20T09:52:20;4.97;;;1.98;;
26407;SDS011;14583;43.604;1.364;2023-07-20T09:54:46;3.00;;;2.00;;
26407;SDS011;14583;43.604;1.364;2023-07-20T09:57:12;5.95;;;2.60;;
26407;SDS011;14583;43.604;1.364;2023-07-20T09:59:39;6.88;;;2.58;;
26407;SDS011;14583;43.604;1.364;2023-07-20T10:02:07;4.05;;;2.10;;
26407;SDS011;14583;43.604;1.364;2023-07-20T10:04:44;5.00;;;2.05;;
26407;SDS011;14583;43.604;1.364;2023-07-20T10:07:10;3.30;;;1.80;;
26407;SDS011;14583;43.604;1.364;2023-07-20T10:09:37;6.43;;;2.42;;
26407;SDS011;14583;43.604;1.364;2023-07-20T10:12:05;6.80;;;2.70;;
26407;SDS011;14583;43.604;1.364;2023-07-20T10:14:34;6.40;;;2.17;;
26407;SDS011;14583;43.604;1.364;2023-07-20T10:17:05;5.55;;;2.10;;
26407;SDS011;14583;43.604;1.364;2023-07-20T10:22:43;6.40;;;2.53;;
26407;SDS011;14583;43.604;1.364;2023-07-20T10:25:01;7.50;;;2.25;;
26407;SDS011;14583;43.604;1.364;2023-07-20T10:27:30;6.05;;;2.17;;
26407;SDS011;14583;43.604;1.364;2023-07-20T10:29:55;4.40;;;2.05;;
26407;SDS011;14583;43.604;1.364;2023-07-20T10:32:24;7.25;;;2.42;;
26407;SDS011;14583;43.604;1.364;2023-07-20T10:34:50;6.53;;;1.92;;
26407;SDS011;14583;43.604;1.364;2023-07-20T10:40:34;3.15;;;2.08;;
26407;SDS011;14583;43.604;1.364;2023-07-20T10:43:04;6.13;;;2.08;;
26407;SDS011;14583;43.604;1.364;2023-07-20T10:48:06;5.70;;;2.10;;
26407;SDS011;14583;43.604;1.364;2023-07-20T10:53:39;5.72;;;2.30;;
26407;SDS011;14583;43.604;1.364;2023-07-20T10:56:12;7.63;;;1.83;;
26407;SDS011;14583;43.604;1.364;2023-07-20T10:58:39;5.97;;;2.15;;
26407;SDS011;14583;43.604;1.364;2023-07-20T11:01:06;7.15;;;2.67;;
26407;SDS011;14583;43.604;1.364;2023-07-20T11:03:33;8.60;;;2.55;;
26407;SDS011;14583;43.604;1.364;2023-07-20T11:06:29;6.10;;;2.20;;
26407;SDS011;14583;43.604;1.364;2023-07-20T11:08:48;4.93;;;2.40;;
26407;SDS011;14583;43.604;1.364;2023-07-20T11:11:25;7.38;;;2.65;;
26407;SDS011;14583;43.604;1.364;2023-07-20T11:13:59;3.20;;;2.08;;
26407;SDS011;14583;43.604;1.364;2023-07-20T11:16:45;5.85;;;2.58;;
26407;SDS011;14583;43.604;1.364;2023-07-20T11:19:18;4.63;;;2.97;;
26407;SDS011;14583;43.604;1.364;2023-07-20T11:21:45;3.78;;;2.30;;
26407;SDS011;14583;43.604;1.364;2023-07-20T11:24:12;5.30;;;2.47;;
26407;SDS011;14583;43.604;1.364;2023-07-20T11:29:13;5.53;;;2.50;;
26407;SDS011;14583;43.604;1.364;2023-07-20T11:31:41;5.22;;;2.22;;
26407;SDS011;14583;43.604;1.364;2023-07-20T11:34:10;7.70;;;2.40;;
26407;SDS011;14583;43.604;1.364;2023-07-20T11:36:39;4.47;;;2.38;;
26407;SDS011;14583;43.604;1.364;2023-07-20T11:39:06;6.03;;;2.45;;
26407;SDS011;14583;43.604;1.364;2023-07-20T11:41:35;6.00;;;2.83;;
26407;SDS011;14583;43.604;1.364;2023-07-20T11:44:01;3.72;;;2.20;;
26407;SDS011;14583;43.604;1.364;2023-07-20T11:46:28;3.10;;;2.60;;
26407;SDS011;14583;43.604;1.364;2023-07-20T11:48:58;6.07;;;2.67;;
26407;SDS011;14583;43.604;1.364;2023-07-20T11:51:30;8.48;;;2.90;;
26407;SDS011;14583;43.604;1.364;2023-07-20T11:53:56;6.82;;;2.67;;
26407;SDS011;14583;43.604;1.364;2023-07-20T11:56:23;7.07;;;2.63;;
26407;SDS011;14583;43.604;1.364;2023-07-20T11:58:49;8.13;;;2.50;;
26407;SDS011;14583;43.604;1.364;2023-07-20T12:01:15;6.35;;;2.85;;
26407;SDS011;14583;43.604;1.364;2023-07-20T12:03:43;6.18;;;3.10;;
26407;SDS011;14583;43.604;1.364;2023-07-20T12:06:09;5.90;;;2.42;;
26407;SDS011;14583;43.604;1.364;2023-07-20T12:08:41;3.70;;;2.20;;
26407;SDS011;14583;43.604;1.364;2023-07-20T12:11:08;5.22;;;2.80;;
26407;SDS011;14583;43.604;1.364;2023-07-20T12:13:37;3.33;;;2.17;;
26407;SDS011;14583;43.604;1.364;2023-07-20T12:16:16;7.45;;;2.58;;
26407;SDS011;14583;43.604;1.364;2023-07-20T12:21:08;5.25;;;2.63;;
26407;SDS011;14583;43.604;1.364;2023-07-20T12:23:35;6.22;;;2.83;;
26407;SDS011;14583;43.604;1.364;2023-07-20T12:26:03;4.63;;;2.60;;
26407;SDS011;14583;43.604;1.364;2023-07-20T12:28:38;5.90;;;2.50;;
26407;SDS011;14583;43.604;1.364;2023-07-20T12:31:08;4.97;;;2.70;;
26407;SDS011;14583;43.604;1.364;2023-07-20T12:33:35;5.80;;;2.67;;
26407;SDS011;14583;43.604;1.364;2023-07-20T12:36:04;6.03;;;2.50;;
26407;SDS011;14583;43.604;1.364;2023-07-20T12:38:30;5.30;;;2.70;;
26407;SDS011;14583;43.604;1.364;2023-07-20T12:40:56;5.30;;;2.75;;
26407;SDS011;14583;43.604;1.364;2023-07-20T12:43:23;7.35;;;3.10;;
26407;SDS011;14583;43.604;1.364;2023-07-20T12:45:49;7.50;;;2.55;;
26407;SDS011;14583;43.604;1.364;2023-07-20T12:48:15;7.68;;;2.67;;
26407;SDS011;14583;43.604;1.364;2023-07-20T12:50:40;7.03;;;2.95;;
26407;SDS011;14583;43.604;1.364;2023-07-20T12:53:07;4.80;;;2.60;;
26407;SDS011;14583;43.604;1.364;2023-07-20T12:55:33;8.40;;;3.17;;
26407;SDS011;14583;43.604;1.364;2023-07-20T12:57:58;6.85;;;2.80;;
26407;SDS011;14583;43.604;1.364;2023-07-20T13:00:24;7.15;;;2.72;;
26407;SDS011;14583;43.604;1.364;2023-07-20T13:02:50;6.97;;;2.30;;
26407;SDS011;14583;43.604;1.364;2023-07-20T13:05:16;4.88;;;2.72;;
26407;SDS011;14583;43.604;1.364;2023-07-20T13:07:41;4.43;;;2.40;;
26407;SDS011;14583;43.604;1.364;2023-07-20T13:10:08;7.32;;;2.65;;
26407;SDS011;14583;43.604;1.364;2023-07-20T13:12:35;6.07;;;2.75;;
26407;SDS011;14583;43.604;1.364;2023-07-20T13:15:02;5.95;;;2.75;;
26407;SDS011;14583;43.604;1.364;2023-07-20T13:17:30;7.38;;;3.95;;
26407;SDS011;14583;43.604;1.364;2023-07-20T13:19:57;5.93;;;2.78;;
26407;SDS011;14583;43.604;1.364;2023-07-20T13:22:22;4.32;;;2.30;;
26407;SDS011;14583;43.604;1.364;2023-07-20T13:24:48;4.90;;;2.60;;
26407;SDS011;14583;43.604;1.364;2023-07-20T13:27:15;5.70;;;2.50;;
26407;SDS011;14583;43.604;1.364;2023-07-20T13:29:41;6.85;;;2.67;;
26407;SDS011;14583;43.604;1.364;2023-07-20T13:32:08;5.72;;;2.60;;
26407;SDS011;14583;43.604;1.364;2023-07-20T13:34:34;4.57;;;2.50;;
26407;SDS011;14583;43.604;1.364;2023-07-20T13:37:00;3.33;;;2.47;;
26407;SDS011;14583;43.604;1.364;2023-07-20T13:39:26;5.35;;;2.40;;
26407;SDS011;14583;43.604;1.364;2023-07-20T13:41:53;4.45;;;2.70;;
26407;SDS011;14583;43.604;1.364;2023-07-20T13:44:21;5.88;;;2.95;;
26407;SDS011;14583;43.604;1.364;2023-07-20T13:46:47;5.22;;;2.88;;
26407;SDS011;14583;43.604;1.364;2023-07-20T13:49:13;6.15;;;2.67;;
26407;SDS011;14583;43.604;1.364;2023-07-20T13:51:39;6.43;;;2.97;;
26407;SDS011;14583;43.604;1.364;2023-07-20T13:54:06;4.13;;;2.78;;
26407;SDS011;14583;43.604;1.364;2023-07-20T13:56:32;3.22;;;2.55;;
26407;SDS011;14583;43.604;1.364;2023-07-20T13:58:57;4.85;;;2.50;;
26407;SDS011;14583;43.604;1.364;2023-07-20T14:01:23;3.58;;;2.70;;
26407;SDS011;14583;43.604;1.364;2023-07-20T14:03:50;6.95;;;2.38;;
26407;SDS011;14583;43.604;1.364;2023-07-20T14:06:16;10.05;;;2.75;;
26407;SDS011;14583;43.604;1.364;2023-07-20T14:08:42;5.07;;;2.70;;
26407;SDS011;14583;43.604;1.364;2023-07-20T14:11:11;5.95;;;2.47;;
26407;SDS011;14583;43.604;1.364;2023-07-20T14:13:37;5.88;;;2.92;;
26407;SDS011;14583;43.604;1.364;2023-07-20T14:16:03;7.22;;;2.70;;
26407;SDS011;14583;43.604;1.364;2023-07-20T14:18:29;4.15;;;2.63;;
26407;SDS011;14583;43.604;1.364;2023-07-20T14:20:55;6.38;;;2.78;;
26407;SDS011;14583;43.604;1.364;2023-07-20T14:23:20;6.57;;;3.30;;
26407;SDS011;14583;43.604;1.364;2023-07-20T14:25:46;12.73;;;3.13;;
26407;SDS011;14583;43.604;1.364;2023-07-20T14:28:12;4.05;;;2.63;;
26407;SDS011;14583;43.604;1.364;2023-07-20T14:30:38;7.60;;;3.17;;
26407;SDS011;14583;43.604;1.364;2023-07-20T14:33:04;4.97;;;2.90;;
26407;SDS011;14583;43.604;1.364;2023-07-20T14:35:29;3.58;;;2.65;;
26407;SDS011;14583;43.604;1.364;2023-07-20T14:37:55;5.05;;;3.15;;
26407;SDS011;14583;43.604;1.364;2023-07-20T14:40:21;6.55;;;2.67;;
26407;SDS011;14583;43.604;1.364;2023-07-20T14:42:47;4.78;;;2.58;;
26407;SDS011;14583;43.604;1.364;2023-07-20T14:45:12;11.48;;;2.63;;
26407;SDS011;14583;43.604;1.364;2023-07-20T14:47:38;5.32;;;2.78;;
26407;SDS011;14583;43.604;1.364;2023-07-20T14:50:04;4.60;;;2.80;;
26407;SDS011;14583;43.604;1.364;2023-07-20T14:52:30;6.72;;;2.80;;
26407;SDS011;14583;43.604;1.364;2023-07-20T14:54:56;6.05;;;2.78;;
26407;SDS011;14583;43.604;1.364;2023-07-20T14:57:22;5.47;;;3.05;;
26407;SDS011;14583;43.604;1.364;2023-07-20T14:59:51;4.35;;;2.78;;
26407;SDS011;14583;43.604;1.364;2023-07-20T15:02:18;5.82;;;3.03;;
26407;SDS011;14583;43.604;1.364;2023-07-20T15:04:50;3.17;;;2.70;;
26407;SDS011;14583;43.604;1.364;2023-07-20T15:07:18;4.28;;;2.67;;
26407;SDS011;14583;43.604;1.364;2023-07-20T15:09:44;5.53;;;2.65;;